createdAt,value
2019-01-31T00:00:51.125Z,1.94
2019-01-31T00:02:21.822Z,1.93
2019-01-31T00:03:30.723Z,1.96
2019-01-31T00:04:37.194Z,2.02
2019-01-31T00:05:49.598Z,2.06
2019-01-31T00:06:56.162Z,2.08
2019-01-31T00:08:14.379Z,2.04
2019-01-31T00:09:26.590Z,2.00
2019-01-31T00:10:47.880Z,1.90
2019-01-31T00:11:54.361Z,1.93
2019-01-31T00:13:12.501Z,2.01
2019-01-31T00:14:21.644Z,2.06
2019-01-31T00:15:30.670Z,2.12
2019-01-31T00:16:45.775Z,2.05
2019-01-31T00:17:58.171Z,2.05
2019-01-31T00:19:04.645Z,1.95
2019-01-31T00:20:28.703Z,1.91
2019-01-31T00:21:35.187Z,1.94
2019-01-31T00:22:47.199Z,1.93
2019-01-31T00:24:02.317Z,1.88
2019-01-31T00:25:38.918Z,1.88
2019-01-31T00:26:59.955Z,1.88
2019-01-31T00:28:24.308Z,1.89
2019-01-31T00:29:30.872Z,1.94
2019-01-31T00:30:42.520Z,1.90
2019-01-31T00:32:03.817Z,1.88
2019-01-31T00:33:12.980Z,1.82
2019-01-31T00:34:25.113Z,1.64
2019-01-31T00:35:37.258Z,1.55
2019-01-31T00:36:58.592Z,1.39
2019-01-31T00:38:22.417Z,1.32
2019-01-31T00:39:47.697Z,1.33
2019-01-31T00:41:14.663Z,1.39
2019-01-31T00:42:29.984Z,1.41
2019-01-31T00:43:54.056Z,1.46
2019-01-31T00:45:03.540Z,1.50
2019-01-31T00:46:24.632Z,1.49
2019-01-31T00:47:55.061Z,1.53
2019-01-31T00:49:01.536Z,1.58
2019-01-31T00:50:34.922Z,1.61
2019-01-31T00:51:44.365Z,1.62
2019-01-31T00:52:59.534Z,1.65
2019-01-31T00:54:14.795Z,1.62
2019-01-31T00:55:24.120Z,1.59
2019-01-31T00:56:35.849Z,1.60
2019-01-31T00:57:45.310Z,1.49
2019-01-31T00:58:54.366Z,1.41
2019-01-31T01:00:03.280Z,1.43
2019-01-31T01:01:15.631Z,1.43
2019-01-31T01:02:36.893Z,1.49
2019-01-31T01:04:05.381Z,1.57
2019-01-31T01:05:23.738Z,1.60
2019-01-31T01:06:49.399Z,1.63
2019-01-31T01:08:01.626Z,1.64
2019-01-31T01:09:27.175Z,1.63
2019-01-31T01:10:42.138Z,1.64
2019-01-31T01:11:57.278Z,1.69
2019-01-31T01:13:14.628Z,1.70
2019-01-31T01:14:24.019Z,1.66
2019-01-31T01:15:52.688Z,1.66
2019-01-31T01:16:59.168Z,1.63
2019-01-31T01:18:14.405Z,1.62
2019-01-31T01:19:20.880Z,1.57
2019-01-31T01:20:39.237Z,1.49
2019-01-31T01:21:51.485Z,1.46
2019-01-31T01:23:00.836Z,1.45
2019-01-31T01:24:07.334Z,1.46
2019-01-31T01:25:29.837Z,1.47
2019-01-31T01:26:48.121Z,1.44
2019-01-31T01:28:06.546Z,1.47
2019-01-31T01:29:28.139Z,1.45
2019-01-31T01:31:00.090Z,1.43
2019-01-31T01:32:21.558Z,1.42
2019-01-31T01:33:39.756Z,1.39
2019-01-31T01:35:03.739Z,1.33
2019-01-31T01:36:21.984Z,1.23
2019-01-31T01:37:53.756Z,1.24
2019-01-31T01:39:18.886Z,1.26
2019-01-31T01:40:35.476Z,1.28
2019-01-31T01:41:44.844Z,1.29
2019-01-31T01:43:07.823Z,1.28
2019-01-31T01:44:29.210Z,1.31
2019-01-31T01:45:50.504Z,1.20
2019-01-31T01:47:14.680Z,1.23
2019-01-31T01:48:27.216Z,1.26
2019-01-31T01:49:36.221Z,1.20
2019-01-31T01:50:45.543Z,1.19
2019-01-31T01:52:18.748Z,1.18
2019-01-31T01:53:27.762Z,1.15
2019-01-31T01:54:53.122Z,1.18
2019-01-31T01:56:18.580Z,1.18
2019-01-31T01:57:33.626Z,1.12
2019-01-31T01:58:45.650Z,0.93
2019-01-31T02:00:18.959Z,0.91
2019-01-31T02:01:46.118Z,0.99
2019-01-31T02:03:07.359Z,1.06
2019-01-31T02:04:22.464Z,1.01
2019-01-31T02:05:40.419Z,0.98
2019-01-31T02:06:49.665Z,0.96
2019-01-31T02:08:04.859Z,0.90
2019-01-31T02:09:11.403Z,0.90
2019-01-31T02:10:32.442Z,0.83
2019-01-31T02:11:47.568Z,0.78
2019-01-31T02:13:11.347Z,0.76
2019-01-31T02:14:38.639Z,0.83
2019-01-31T02:15:45.138Z,0.82
2019-01-31T02:17:10.593Z,0.93
2019-01-31T02:18:19.619Z,0.93
2019-01-31T02:19:54.718Z,0.93
2019-01-31T02:21:22.043Z,0.86
2019-01-31T02:22:52.552Z,0.88
2019-01-31T02:24:04.826Z,0.83
2019-01-31T02:25:14.241Z,0.75
2019-01-31T02:26:20.698Z,0.84
2019-01-31T02:27:44.831Z,0.91
2019-01-31T02:28:57.459Z,0.95
2019-01-31T02:30:20.182Z,1.00
2019-01-31T02:31:38.328Z,0.96
2019-01-31T02:32:47.760Z,0.91
2019-01-31T02:33:57.219Z,0.92
2019-01-31T02:35:15.324Z,0.90
2019-01-31T02:36:36.589Z,0.92
2019-01-31T02:38:10.072Z,0.96
2019-01-31T02:39:47.801Z,0.94
2019-01-31T02:41:02.811Z,0.78
2019-01-31T02:42:24.832Z,0.72
2019-01-31T02:43:48.736Z,0.73
2019-01-31T02:44:57.981Z,0.74
2019-01-31T02:46:04.468Z,0.74
2019-01-31T02:47:13.525Z,0.79
2019-01-31T02:48:20.028Z,0.80
2019-01-31T02:49:32.347Z,0.81
2019-01-31T02:50:44.433Z,0.82
2019-01-31T02:51:56.676Z,0.83
2019-01-31T02:53:06.052Z,0.75
2019-01-31T02:54:28.800Z,0.70
2019-01-31T02:55:46.964Z,0.70
2019-01-31T02:56:59.014Z,0.66
2019-01-31T02:58:14.213Z,0.58
2019-01-31T02:59:29.397Z,0.57
2019-01-31T03:00:56.419Z,0.57
2019-01-31T03:02:11.676Z,0.60
2019-01-31T03:03:23.580Z,0.64
2019-01-31T03:04:30.073Z,0.65
2019-01-31T03:05:36.559Z,0.68
2019-01-31T03:06:57.534Z,0.66
2019-01-31T03:08:15.727Z,0.64
2019-01-31T03:09:25.077Z,0.64
2019-01-31T03:10:31.685Z,0.67
2019-01-31T03:11:40.818Z,0.65
2019-01-31T03:12:59.052Z,0.60
2019-01-31T03:14:10.155Z,0.61
2019-01-31T03:15:22.734Z,0.54
2019-01-31T03:16:38.066Z,0.53
2019-01-31T03:17:59.398Z,0.52
2019-01-31T03:19:23.647Z,0.60
2019-01-31T03:20:38.703Z,0.54
2019-01-31T03:21:56.897Z,0.48
2019-01-31T03:23:12.159Z,0.47
2019-01-31T03:24:33.347Z,0.47
2019-01-31T03:25:42.737Z,0.50
2019-01-31T03:27:11.326Z,0.51
2019-01-31T03:28:35.606Z,0.51
2019-01-31T03:29:58.073Z,0.52
2019-01-31T03:31:32.941Z,0.53
2019-01-31T03:32:45.072Z,0.52
2019-01-31T03:33:57.214Z,0.51
2019-01-31T03:35:14.978Z,0.48
2019-01-31T03:36:30.166Z,0.51
2019-01-31T03:37:42.222Z,0.45
2019-01-31T03:38:54.205Z,0.49
2019-01-31T03:40:12.215Z,0.54
2019-01-31T03:41:26.980Z,0.54
2019-01-31T03:42:49.810Z,0.46
2019-01-31T03:43:56.287Z,0.45
2019-01-31T03:45:02.762Z,0.38
2019-01-31T03:46:09.254Z,0.36
2019-01-31T03:47:21.590Z,0.32
2019-01-31T03:48:30.934Z,0.38
2019-01-31T03:49:40.489Z,0.39
2019-01-31T03:50:47.042Z,0.38
2019-01-31T03:52:08.268Z,0.30
2019-01-31T03:53:23.533Z,0.31
2019-01-31T03:54:44.715Z,0.34
2019-01-31T03:56:15.643Z,0.32
2019-01-31T03:57:27.310Z,0.36
2019-01-31T03:58:36.348Z,0.31
2019-01-31T03:59:39.845Z,0.35
2019-01-31T04:00:58.271Z,0.32
2019-01-31T04:02:28.893Z,0.26
2019-01-31T04:03:35.369Z,0.23
2019-01-31T04:04:41.857Z,0.25
2019-01-31T04:05:48.332Z,0.20
2019-01-31T04:06:51.817Z,0.13
2019-01-31T04:07:55.212Z,0.07
2019-01-31T04:08:58.631Z,0.08
2019-01-31T04:10:02.219Z,0.05
2019-01-31T04:11:05.800Z,0.02
2019-01-31T04:12:09.359Z,0.08
2019-01-31T04:13:12.787Z,0.04
2019-01-31T04:14:16.216Z,0.11
2019-01-31T04:15:19.705Z,0.12
2019-01-31T04:16:23.224Z,0.13
2019-01-31T04:17:26.666Z,0.13
2019-01-31T04:18:30.090Z,0.10
2019-01-31T04:19:33.513Z,0.04
2019-01-31T04:20:36.973Z,0.07
2019-01-31T04:21:40.490Z,0.01
2019-01-31T04:22:43.934Z,0.04
2019-01-31T04:23:47.368Z,0.08
2019-01-31T04:24:50.796Z,0.11
2019-01-31T04:25:54.232Z,0.17
2019-01-31T04:26:57.661Z,0.18
2019-01-31T04:28:01.081Z,0.13
2019-01-31T04:29:04.662Z,0.12
2019-01-31T04:30:11.134Z,0.10
2019-01-31T04:31:14.694Z,0.07
2019-01-31T04:32:18.145Z,0.03
2019-01-31T04:33:21.576Z,0.02
2019-01-31T04:34:25.005Z,0.03
2019-01-31T04:35:28.510Z,-0.01
2019-01-31T04:36:32.045Z,-0.03
2019-01-31T04:37:35.541Z,0.00
2019-01-31T04:38:39.054Z,0.04
2019-01-31T04:39:42.549Z,0.08
2019-01-31T04:40:46.047Z,0.10
2019-01-31T04:41:49.476Z,0.11
2019-01-31T04:42:52.917Z,0.12
2019-01-31T04:43:56.347Z,0.16
2019-01-31T04:44:59.774Z,0.20
2019-01-31T04:46:03.275Z,0.25
2019-01-31T04:47:06.765Z,0.23
2019-01-31T04:48:10.207Z,0.24
2019-01-31T04:49:13.647Z,0.26
2019-01-31T04:50:17.237Z,0.27
2019-01-31T04:51:20.653Z,0.26
2019-01-31T04:52:24.148Z,0.25
2019-01-31T04:53:27.598Z,0.25
2019-01-31T04:54:31.121Z,0.24
2019-01-31T04:55:34.613Z,0.27
2019-01-31T04:56:38.043Z,0.26
2019-01-31T04:57:41.532Z,0.24
2019-01-31T04:58:44.981Z,0.21
2019-01-31T04:59:48.427Z,0.25
2019-01-31T05:00:51.916Z,0.29
2019-01-31T05:01:55.358Z,0.30
2019-01-31T05:02:58.798Z,0.25
2019-01-31T05:04:02.295Z,0.19
2019-01-31T05:05:07.201Z,0.17
2019-01-31T05:06:10.664Z,0.18
2019-01-31T05:07:14.219Z,0.20
2019-01-31T05:08:17.654Z,0.22
2019-01-31T05:09:21.115Z,0.18
2019-01-31T05:10:24.570Z,0.19
2019-01-31T05:11:28.106Z,0.15
2019-01-31T05:12:31.520Z,0.11
2019-01-31T05:13:34.962Z,0.15
2019-01-31T05:14:38.409Z,0.19
2019-01-31T05:15:42.008Z,0.18
2019-01-31T05:16:45.595Z,0.18
2019-01-31T05:17:49.084Z,0.16
2019-01-31T05:18:52.516Z,0.14
2019-01-31T05:19:55.962Z,0.16
2019-01-31T05:20:59.506Z,0.14
2019-01-31T05:22:03.023Z,0.16
2019-01-31T05:23:06.452Z,0.18
2019-01-31T05:24:09.898Z,0.21
2019-01-31T05:25:14.677Z,0.21
2019-01-31T05:26:18.176Z,0.17
2019-01-31T05:27:21.618Z,0.15
2019-01-31T05:28:25.182Z,0.16
2019-01-31T05:29:28.847Z,0.17
2019-01-31T05:30:32.295Z,0.18
2019-01-31T05:31:35.876Z,0.14
2019-01-31T05:32:39.366Z,0.14
2019-01-31T05:33:42.800Z,0.12
2019-01-31T05:34:46.297Z,0.12
2019-01-31T05:35:49.824Z,0.12
2019-01-31T05:36:53.338Z,0.13
2019-01-31T05:37:56.770Z,0.11
2019-01-31T05:39:00.192Z,0.11
2019-01-31T05:40:04.875Z,0.11
2019-01-31T05:41:08.306Z,0.14
2019-01-31T05:42:11.761Z,0.15
2019-01-31T05:43:15.187Z,0.14
2019-01-31T05:44:18.690Z,0.14
2019-01-31T05:45:22.123Z,0.13
2019-01-31T05:46:25.631Z,0.12
2019-01-31T05:47:29.097Z,0.08
2019-01-31T05:48:32.686Z,0.08
2019-01-31T05:49:36.033Z,0.09
2019-01-31T05:50:39.459Z,0.10
2019-01-31T05:51:42.978Z,0.10
2019-01-31T05:52:46.491Z,0.07
2019-01-31T05:53:49.916Z,0.07
2019-01-31T05:54:53.340Z,0.08
2019-01-31T05:55:56.781Z,0.10
2019-01-31T05:57:00.372Z,0.13
2019-01-31T05:58:03.963Z,0.15
2019-01-31T05:59:07.458Z,0.10
2019-01-31T06:00:16.888Z,0.07
2019-01-31T06:01:20.321Z,0.07
2019-01-31T06:02:23.859Z,0.07
2019-01-31T06:03:27.257Z,0.09
2019-01-31T06:04:30.755Z,0.11
2019-01-31T06:05:34.322Z,0.12
2019-01-31T06:06:37.772Z,0.14
2019-01-31T06:07:41.268Z,0.10
2019-01-31T06:08:44.827Z,0.10
2019-01-31T06:09:48.348Z,0.09
2019-01-31T06:10:51.801Z,0.06
2019-01-31T06:11:55.246Z,0.06
2019-01-31T06:12:58.756Z,0.07
2019-01-31T06:14:02.302Z,0.05
2019-01-31T06:15:08.746Z,0.02
2019-01-31T06:16:12.264Z,0.05
2019-01-31T06:17:15.752Z,0.05
2019-01-31T06:18:19.226Z,0.04
2019-01-31T06:19:22.655Z,0.05
2019-01-31T06:20:26.420Z,0.05
2019-01-31T06:21:29.849Z,0.04
2019-01-31T06:22:33.289Z,0.05
2019-01-31T06:23:36.727Z,0.05
2019-01-31T06:24:40.164Z,0.06
2019-01-31T06:25:43.614Z,0.03
2019-01-31T06:26:47.117Z,0.04
2019-01-31T06:27:50.697Z,0.08
2019-01-31T06:28:54.273Z,0.09
2019-01-31T06:29:57.694Z,0.09
2019-01-31T06:31:01.115Z,0.07
2019-01-31T06:32:04.681Z,0.07
2019-01-31T06:33:08.172Z,0.08
2019-01-31T06:34:11.783Z,0.07
2019-01-31T06:35:15.450Z,0.04
2019-01-31T06:36:18.873Z,0.00
2019-01-31T06:37:22.321Z,-0.03
2019-01-31T06:38:25.878Z,-0.02
2019-01-31T06:39:29.335Z,0.01
2019-01-31T06:40:32.787Z,0.04
2019-01-31T06:41:36.224Z,0.06
2019-01-31T06:42:39.750Z,0.07
2019-01-31T06:43:43.191Z,0.04
2019-01-31T06:44:46.723Z,-0.02
2019-01-31T06:45:50.179Z,-0.04
2019-01-31T06:46:53.608Z,-0.04
2019-01-31T06:47:57.035Z,0.00
2019-01-31T06:49:00.550Z,-0.03
2019-01-31T06:50:05.049Z,-0.02
2019-01-31T06:51:08.563Z,-0.06
2019-01-31T06:52:11.998Z,-0.10
2019-01-31T06:53:15.437Z,-0.11
2019-01-31T06:54:18.868Z,-0.12
2019-01-31T06:55:22.466Z,-0.11
2019-01-31T06:56:25.900Z,-0.15
2019-01-31T06:57:29.338Z,-0.18
2019-01-31T06:58:32.773Z,-0.18
2019-01-31T06:59:36.273Z,-0.18
2019-01-31T07:00:39.766Z,-0.17
2019-01-31T07:01:43.282Z,-0.13
2019-01-31T07:02:46.788Z,-0.13
2019-01-31T07:03:50.321Z,-0.15
2019-01-31T07:04:53.811Z,-0.14
2019-01-31T07:05:57.270Z,-0.12
2019-01-31T07:07:00.802Z,-0.12
2019-01-31T07:08:04.795Z,-0.10
2019-01-31T07:09:09.981Z,-0.10
2019-01-31T07:10:24.735Z,-0.09
2019-01-31T07:11:30.055Z,-0.11
2019-01-31T07:12:33.441Z,-0.10
2019-01-31T07:13:36.887Z,-0.12
2019-01-31T07:14:40.329Z,-0.11
2019-01-31T07:15:43.787Z,-0.09
2019-01-31T07:16:47.376Z,-0.04
2019-01-31T07:17:50.888Z,-0.01
2019-01-31T07:18:54.316Z,0.02
2019-01-31T07:19:57.754Z,0.05
2019-01-31T07:21:01.276Z,0.05
2019-01-31T07:22:05.178Z,0.06
2019-01-31T07:23:08.699Z,0.05
2019-01-31T07:24:12.201Z,0.06
2019-01-31T07:25:18.458Z,0.05
2019-01-31T07:26:21.977Z,0.04
2019-01-31T07:27:25.410Z,0.04
2019-01-31T07:28:28.921Z,0.05
2019-01-31T07:29:32.481Z,0.05
2019-01-31T07:30:36.017Z,0.06
2019-01-31T07:31:39.520Z,0.05
2019-01-31T07:32:42.961Z,0.01
2019-01-31T07:33:46.462Z,-0.01
2019-01-31T07:34:49.889Z,0.00
2019-01-31T07:35:53.481Z,0.03
2019-01-31T07:36:57.020Z,0.03
2019-01-31T07:38:00.484Z,0.11
2019-01-31T07:39:05.786Z,0.12
2019-01-31T07:40:11.965Z,0.10
2019-01-31T07:41:15.549Z,0.14
2019-01-31T07:42:19.069Z,0.03
2019-01-31T07:43:22.605Z,0.04
2019-01-31T07:44:26.043Z,0.12
2019-01-31T07:45:31.425Z,0.16
2019-01-31T07:46:34.857Z,0.08
2019-01-31T07:47:38.997Z,0.09
2019-01-31T07:48:42.425Z,0.09
2019-01-31T07:49:45.941Z,0.14
2019-01-31T07:50:49.355Z,0.14
2019-01-31T07:51:52.935Z,0.16
2019-01-31T07:52:56.543Z,0.02
2019-01-31T07:54:00.022Z,0.10
2019-01-31T07:55:03.539Z,0.20
2019-01-31T07:56:07.123Z,0.21
2019-01-31T07:57:10.618Z,0.27
2019-01-31T07:58:14.077Z,0.27
2019-01-31T07:59:17.501Z,0.28
2019-01-31T08:00:27.250Z,0.33
2019-01-31T08:01:30.688Z,0.36
2019-01-31T08:02:34.182Z,0.29
2019-01-31T08:03:40.634Z,0.33
2019-01-31T08:04:42.889Z,0.34
2019-01-31T08:05:46.537Z,0.38
2019-01-31T08:06:50.009Z,0.33
2019-01-31T08:07:58.066Z,0.37
2019-01-31T08:09:01.593Z,0.40
2019-01-31T08:10:08.076Z,0.41
2019-01-31T08:11:11.641Z,0.45
2019-01-31T08:12:15.146Z,0.49
2019-01-31T08:13:18.713Z,0.50
2019-01-31T08:14:22.180Z,0.50
2019-01-31T08:15:25.757Z,0.53
2019-01-31T08:16:29.323Z,0.51
2019-01-31T08:17:32.782Z,0.51
2019-01-31T08:18:36.362Z,0.54
2019-01-31T08:19:39.810Z,0.56
2019-01-31T08:20:43.321Z,0.62
2019-01-31T08:21:46.827Z,0.61
2019-01-31T08:22:50.395Z,0.66
2019-01-31T08:23:53.988Z,0.72
2019-01-31T08:24:57.396Z,0.74
2019-01-31T08:26:00.854Z,0.74
2019-01-31T08:27:04.447Z,0.73
2019-01-31T08:28:08.016Z,0.73
2019-01-31T08:29:11.509Z,0.76
2019-01-31T08:30:23.980Z,0.78
2019-01-31T08:31:27.475Z,0.83
2019-01-31T08:32:30.979Z,0.83
2019-01-31T08:33:34.546Z,0.81
2019-01-31T08:34:37.977Z,0.83
2019-01-31T08:35:41.565Z,0.86
2019-01-31T08:36:45.062Z,0.88
2019-01-31T08:37:48.622Z,0.80
2019-01-31T08:38:52.119Z,0.84
2019-01-31T08:39:55.542Z,0.90
2019-01-31T08:40:59.068Z,0.95
2019-01-31T08:42:03.744Z,0.98
2019-01-31T08:43:07.436Z,0.99
2019-01-31T08:44:10.929Z,0.99
2019-01-31T08:45:15.268Z,0.98
2019-01-31T08:46:18.789Z,0.98
2019-01-31T08:47:22.267Z,1.01
2019-01-31T08:48:25.884Z,0.97
2019-01-31T08:49:29.362Z,0.85
2019-01-31T08:50:33.133Z,0.85
2019-01-31T08:51:36.651Z,0.87
2019-01-31T08:52:41.757Z,0.94
2019-01-31T08:53:45.175Z,0.87
2019-01-31T08:54:48.604Z,0.95
2019-01-31T08:55:52.108Z,0.99
2019-01-31T08:56:55.622Z,1.00
2019-01-31T08:57:59.216Z,0.91
2019-01-31T08:59:02.636Z,0.81
2019-01-31T09:00:12.011Z,0.82
2019-01-31T09:01:15.688Z,0.92
2019-01-31T09:02:19.166Z,0.96
2019-01-31T09:03:22.661Z,1.04
2019-01-31T09:04:26.086Z,1.09
2019-01-31T09:05:29.852Z,1.20
2019-01-31T09:06:33.426Z,1.22
2019-01-31T09:07:36.953Z,1.20
2019-01-31T09:08:40.508Z,1.25
2019-01-31T09:09:43.894Z,1.24
2019-01-31T09:10:47.396Z,1.17
2019-01-31T09:11:50.888Z,1.24
2019-01-31T09:12:54.397Z,1.35
2019-01-31T09:13:57.853Z,1.35
2019-01-31T09:15:01.291Z,1.38
2019-01-31T09:16:04.793Z,1.44
2019-01-31T09:17:08.285Z,1.48
2019-01-31T09:18:11.892Z,1.50
2019-01-31T09:19:15.383Z,1.48
2019-01-31T09:20:42.545Z,1.44
2019-01-31T09:21:47.113Z,1.49
2019-01-31T09:22:54.068Z,1.57
2019-01-31T09:24:18.161Z,1.54
2019-01-31T09:25:42.273Z,1.49
2019-01-31T09:27:05.315Z,1.58
2019-01-31T09:28:26.532Z,1.50
2019-01-31T09:29:32.975Z,1.49
2019-01-31T09:30:57.283Z,1.58
2019-01-31T09:32:06.593Z,1.47
2019-01-31T09:33:24.758Z,1.49
2019-01-31T09:34:53.529Z,1.59
2019-01-31T09:36:28.538Z,1.67
2019-01-31T09:37:51.363Z,1.71
2019-01-31T09:39:18.682Z,1.74
2019-01-31T09:40:40.153Z,1.68
2019-01-31T09:41:58.430Z,1.78
2019-01-31T09:43:07.832Z,1.86
2019-01-31T09:44:23.343Z,1.94
2019-01-31T09:45:32.418Z,2.00
2019-01-31T09:46:45.002Z,1.94
2019-01-31T09:48:00.194Z,1.97
2019-01-31T09:49:09.473Z,2.02
2019-01-31T09:50:22.077Z,2.07
2019-01-31T09:51:44.999Z,2.01
2019-01-31T09:53:07.824Z,2.02
2019-01-31T09:54:14.328Z,2.08
2019-01-31T09:55:38.571Z,2.13
2019-01-31T09:57:16.317Z,2.18
2019-01-31T09:58:47.965Z,2.24
2019-01-31T10:00:13.602Z,2.35
2019-01-31T10:01:25.965Z,2.34
2019-01-31T10:02:57.885Z,2.33
2019-01-31T10:04:30.582Z,2.39
2019-01-31T10:05:56.631Z,2.45
2019-01-31T10:07:08.654Z,2.52
2019-01-31T10:08:23.693Z,2.62
2019-01-31T10:09:30.174Z,2.62
2019-01-31T10:10:42.273Z,2.64
2019-01-31T10:12:15.626Z,2.63
2019-01-31T10:13:56.599Z,2.69
2019-01-31T10:15:12.059Z,2.77
2019-01-31T10:16:27.235Z,2.75
2019-01-31T10:17:42.609Z,2.70
2019-01-31T10:18:54.647Z,2.47
2019-01-31T10:20:26.329Z,2.70
2019-01-31T10:21:35.608Z,2.75
2019-01-31T10:23:00.411Z,2.87
2019-01-31T10:24:23.212Z,2.94
2019-01-31T10:25:44.254Z,2.95
2019-01-31T10:26:56.331Z,2.99
2019-01-31T10:28:08.657Z,3.02
2019-01-31T10:29:15.135Z,3.18
2019-01-31T10:30:52.633Z,3.27
2019-01-31T10:32:01.704Z,3.39
2019-01-31T10:33:11.008Z,3.62
2019-01-31T10:34:39.386Z,3.86
2019-01-31T10:35:51.774Z,4.10
2019-01-31T10:37:10.259Z,3.97
2019-01-31T10:38:19.170Z,4.02
2019-01-31T10:39:31.337Z,3.99
2019-01-31T10:41:01.348Z,4.02
2019-01-31T10:42:30.123Z,3.99
2019-01-31T10:43:53.304Z,4.03
2019-01-31T10:45:05.576Z,4.05
2019-01-31T10:46:41.313Z,4.08
2019-01-31T10:48:08.620Z,4.06
2019-01-31T10:49:23.771Z,4.05
2019-01-31T10:50:45.106Z,4.05
2019-01-31T10:51:51.592Z,4.07
2019-01-31T10:52:58.085Z,4.13
2019-01-31T10:54:19.276Z,4.11
2019-01-31T10:55:37.525Z,3.91
2019-01-31T10:57:06.234Z,3.93
2019-01-31T10:58:29.264Z,4.08
2019-01-31T10:59:53.570Z,4.25
2019-01-31T11:01:00.067Z,4.36
2019-01-31T11:02:21.357Z,4.49
2019-01-31T11:03:47.224Z,4.55
2019-01-31T11:05:15.732Z,4.69
2019-01-31T11:06:24.918Z,4.77
2019-01-31T11:07:40.370Z,4.84
2019-01-31T11:08:52.113Z,4.71
2019-01-31T11:10:01.452Z,4.55
2019-01-31T11:11:13.146Z,4.42
2019-01-31T11:12:40.517Z,4.37
2019-01-31T11:13:49.436Z,4.47
2019-01-31T11:15:01.419Z,4.63
2019-01-31T11:16:19.107Z,4.82
2019-01-31T11:17:37.313Z,4.99
2019-01-31T11:18:46.359Z,5.14
2019-01-31T11:19:58.647Z,5.25
2019-01-31T11:21:21.483Z,5.31
2019-01-31T11:22:51.734Z,5.31
2019-01-31T11:24:12.161Z,5.27
2019-01-31T11:25:37.743Z,5.15
2019-01-31T11:27:01.811Z,5.08
2019-01-31T11:28:24.780Z,5.15
2019-01-31T11:29:40.018Z,5.07
2019-01-31T11:30:49.245Z,5.27
2019-01-31T11:32:19.659Z,5.46
2019-01-31T11:33:40.834Z,5.46
2019-01-31T11:35:02.101Z,5.61
2019-01-31T11:36:27.773Z,5.76
2019-01-31T11:37:45.701Z,5.70
2019-01-31T11:39:00.736Z,5.41
2019-01-31T11:40:07.295Z,5.18
2019-01-31T11:41:13.772Z,5.16
2019-01-31T11:42:22.699Z,5.19
2019-01-31T11:43:37.984Z,5.22
2019-01-31T11:44:47.033Z,5.26
2019-01-31T11:46:02.111Z,5.27
2019-01-31T11:47:20.332Z,5.45
2019-01-31T11:48:35.545Z,5.69
2019-01-31T11:49:42.060Z,5.66
2019-01-31T11:51:09.519Z,5.58
2019-01-31T11:52:16.018Z,5.69
2019-01-31T11:53:34.405Z,5.96
2019-01-31T11:54:46.214Z,5.96
2019-01-31T11:55:58.244Z,6.10
2019-01-31T11:57:05.778Z,6.23
2019-01-31T11:58:15.074Z,6.40
2019-01-31T11:59:18.540Z,6.57
2019-01-31T12:00:23.624Z,6.79
2019-01-31T12:01:27.562Z,6.88
2019-01-31T12:02:31.001Z,6.98
2019-01-31T12:03:34.423Z,7.11
2019-01-31T12:04:38.003Z,7.20
2019-01-31T12:05:41.529Z,7.30
2019-01-31T12:06:45.092Z,7.40
2019-01-31T12:07:48.728Z,7.49
2019-01-31T12:08:52.227Z,7.56
2019-01-31T12:09:55.743Z,7.62
2019-01-31T12:10:59.270Z,7.60
2019-01-31T12:12:02.817Z,7.74
2019-01-31T12:13:06.456Z,7.87
2019-01-31T12:14:10.012Z,7.91
2019-01-31T12:15:13.691Z,8.02
2019-01-31T12:16:17.203Z,8.11
2019-01-31T12:17:20.631Z,8.25
2019-01-31T12:18:24.204Z,8.40
2019-01-31T12:19:27.708Z,8.46
2019-01-31T12:20:31.239Z,8.55
2019-01-31T12:21:34.724Z,8.52
2019-01-31T12:22:38.222Z,8.60
2019-01-31T12:23:42.195Z,8.62
2019-01-31T12:24:45.626Z,8.74
2019-01-31T12:25:49.205Z,8.91
2019-01-31T12:26:52.807Z,8.94
2019-01-31T12:27:56.398Z,8.84
2019-01-31T12:28:59.904Z,8.78
2019-01-31T12:30:05.143Z,8.85
2019-01-31T12:31:08.655Z,8.99
2019-01-31T12:32:12.148Z,9.06
2019-01-31T12:33:15.642Z,9.11
2019-01-31T12:34:19.073Z,9.23
2019-01-31T12:35:22.597Z,9.41
2019-01-31T12:36:26.211Z,9.51
2019-01-31T12:37:29.585Z,9.64
2019-01-31T12:38:36.867Z,9.83
2019-01-31T12:39:38.246Z,10.01
2019-01-31T12:40:41.715Z,10.31
2019-01-31T12:41:45.358Z,10.31
2019-01-31T12:42:48.819Z,10.96
2019-01-31T12:43:52.381Z,12.26
2019-01-31T12:44:55.809Z,13.57
2019-01-31T12:45:59.265Z,15.42
2019-01-31T12:47:02.725Z,15.42
2019-01-31T12:48:06.291Z,14.85
2019-01-31T12:49:09.717Z,15.09
2019-01-31T12:50:21.925Z,15.13
2019-01-31T12:51:25.528Z,14.93
2019-01-31T12:52:28.972Z,15.17
2019-01-31T12:53:32.481Z,15.14
2019-01-31T12:54:35.992Z,14.68
2019-01-31T12:55:39.575Z,13.84
2019-01-31T12:56:43.402Z,12.89
2019-01-31T12:57:46.981Z,12.21
2019-01-31T12:58:50.672Z,11.70
2019-01-31T12:59:54.160Z,11.41
2019-01-31T13:00:57.684Z,11.20
2019-01-31T13:02:01.189Z,11.16
2019-01-31T13:03:04.867Z,10.83
2019-01-31T13:04:08.370Z,10.75
2019-01-31T13:05:12.545Z,10.61
2019-01-31T13:06:16.111Z,10.61
2019-01-31T13:07:19.563Z,10.66
2019-01-31T13:08:22.979Z,10.50
2019-01-31T13:09:28.359Z,10.20
2019-01-31T13:10:31.643Z,10.43
2019-01-31T13:11:35.236Z,10.98
2019-01-31T13:12:48.373Z,11.85
2019-01-31T13:13:46.030Z,12.52
2019-01-31T13:14:49.396Z,13.44
2019-01-31T13:15:52.962Z,13.44
2019-01-31T13:16:56.441Z,13.95
2019-01-31T13:17:59.972Z,14.39
2019-01-31T13:19:03.468Z,14.39
2019-01-31T13:20:10.425Z,15.05
2019-01-31T13:21:14.024Z,15.05
2019-01-31T13:22:17.750Z,15.35
2019-01-31T13:23:21.340Z,15.37
2019-01-31T13:24:24.760Z,15.57
2019-01-31T13:25:28.731Z,15.26
2019-01-31T13:26:32.394Z,15.26
2019-01-31T13:27:35.862Z,15.22
2019-01-31T13:28:39.361Z,15.00
2019-01-31T13:29:42.927Z,15.49
2019-01-31T13:30:46.457Z,15.49
2019-01-31T13:31:50.156Z,15.99
2019-01-31T13:32:55.499Z,15.99
2019-01-31T13:33:59.043Z,16.06
2019-01-31T13:35:02.591Z,16.24
2019-01-31T13:36:09.033Z,16.14
2019-01-31T13:37:12.709Z,16.00
2019-01-31T13:38:16.287Z,16.00
2019-01-31T13:39:20.287Z,16.08
2019-01-31T13:40:26.001Z,15.12
2019-01-31T13:41:29.582Z,15.12
2019-01-31T13:42:33.070Z,14.32
2019-01-31T13:43:36.589Z,13.78
2019-01-31T13:44:40.118Z,13.32
2019-01-31T13:45:43.683Z,13.18
2019-01-31T13:46:47.274Z,12.86
2019-01-31T13:47:50.715Z,12.48
2019-01-31T13:48:54.227Z,11.75
2019-01-31T13:49:57.844Z,11.50
2019-01-31T13:51:01.287Z,11.26
2019-01-31T13:52:04.865Z,11.26
2019-01-31T13:53:08.870Z,11.07
2019-01-31T13:54:12.456Z,11.07
2019-01-31T13:55:21.698Z,11.04
2019-01-31T13:56:25.288Z,10.94
2019-01-31T13:57:28.781Z,10.65
2019-01-31T13:58:32.345Z,10.59
2019-01-31T13:59:35.861Z,10.49
2019-01-31T14:00:39.639Z,10.43
2019-01-31T14:01:43.147Z,10.43
2019-01-31T14:02:46.744Z,10.47
2019-01-31T14:03:50.382Z,10.43
2019-01-31T14:04:53.876Z,10.41
2019-01-31T14:05:57.406Z,10.26
2019-01-31T14:07:01.055Z,10.24
2019-01-31T14:08:05.269Z,10.24
2019-01-31T14:09:09.643Z,10.22
2019-01-31T14:10:16.486Z,10.16
2019-01-31T14:11:19.931Z,10.15
2019-01-31T14:12:23.360Z,10.10
2019-01-31T14:13:26.792Z,10.02
2019-01-31T14:14:30.272Z,9.94
2019-01-31T14:15:35.060Z,9.87
2019-01-31T14:16:47.320Z,9.82
2019-01-31T14:17:43.769Z,9.75
2019-01-31T14:18:47.486Z,9.76
2019-01-31T14:19:50.911Z,9.72
2019-01-31T14:20:54.357Z,9.69
2019-01-31T14:21:57.779Z,9.68
2019-01-31T14:23:01.315Z,9.68
2019-01-31T14:24:05.181Z,9.63
2019-01-31T14:25:08.991Z,9.57
2019-01-31T14:26:12.504Z,9.48
2019-01-31T14:27:15.961Z,9.44
2019-01-31T14:28:19.454Z,9.32
2019-01-31T14:29:22.885Z,9.22
2019-01-31T14:30:28.992Z,9.14
2019-01-31T14:31:32.448Z,8.99
2019-01-31T14:32:36.091Z,8.91
2019-01-31T14:33:39.518Z,8.95
2019-01-31T14:34:42.933Z,8.89
2019-01-31T14:35:46.625Z,8.89
2019-01-31T14:36:50.888Z,8.66
2019-01-31T14:37:54.447Z,8.59
2019-01-31T14:38:57.949Z,8.38
2019-01-31T14:40:01.375Z,8.31
2019-01-31T14:41:05.227Z,8.32
2019-01-31T14:42:08.793Z,8.28
2019-01-31T14:43:12.288Z,8.31
2019-01-31T14:44:20.662Z,8.28
2019-01-31T14:45:21.093Z,8.29
2019-01-31T14:46:24.594Z,8.32
2019-01-31T14:47:28.174Z,8.33
2019-01-31T14:48:32.031Z,8.33
2019-01-31T14:49:35.449Z,8.24
2019-01-31T14:50:39.054Z,8.26
2019-01-31T14:51:42.567Z,8.30
2019-01-31T14:52:46.765Z,8.34
2019-01-31T14:53:50.214Z,8.38
2019-01-31T14:54:53.633Z,8.41
2019-01-31T14:55:57.127Z,8.45
2019-01-31T14:57:00.657Z,8.32
2019-01-31T14:58:05.337Z,8.26
2019-01-31T14:59:08.769Z,8.19
2019-01-31T15:00:15.481Z,8.13
2019-01-31T15:01:19.046Z,8.00
2019-01-31T15:02:22.502Z,7.99
2019-01-31T15:03:25.925Z,8.03
2019-01-31T15:04:29.338Z,8.01
2019-01-31T15:05:32.825Z,8.02
2019-01-31T15:06:36.332Z,7.98
2019-01-31T15:07:39.915Z,7.89
2019-01-31T15:08:43.369Z,7.91
2019-01-31T15:09:46.846Z,7.94
2019-01-31T15:10:50.226Z,7.95
2019-01-31T15:11:53.718Z,7.93
2019-01-31T15:12:57.303Z,7.80
2019-01-31T15:14:00.722Z,7.73
2019-01-31T15:15:06.658Z,7.68